createdAt,value
2018-08-03T00:01:38.417Z,55.55
2018-08-03T00:04:07.320Z,55.70
2018-08-03T00:06:35.837Z,55.57
2018-08-03T00:09:07.746Z,55.59
2018-08-03T00:11:36.244Z,55.54
2018-08-03T00:14:04.775Z,55.37
2018-08-03T00:16:33.340Z,55.96
2018-08-03T00:19:02.093Z,56.16
2018-08-03T00:21:31.752Z,56.09
2018-08-03T00:24:01.189Z,56.30
2018-08-03T00:26:30.387Z,56.48
2018-08-03T00:28:59.463Z,56.49
2018-08-03T00:31:29.689Z,56.31
2018-08-03T00:33:58.560Z,56.48
2018-08-03T00:36:27.057Z,56.33
2018-08-03T00:38:56.226Z,56.59
2018-08-03T00:41:25.298Z,56.97
2018-08-03T00:43:53.758Z,56.65
2018-08-03T00:46:22.731Z,57.04
2018-08-03T00:48:51.180Z,56.94
2018-08-03T00:51:19.633Z,56.89
2018-08-03T00:53:48.782Z,57.18
2018-08-03T00:56:17.232Z,57.33
2018-08-03T00:58:46.285Z,57.50
2018-08-03T01:01:15.573Z,57.32
2018-08-03T01:03:44.101Z,57.54
2018-08-03T01:06:12.537Z,57.63
2018-08-03T01:08:41.201Z,57.39
2018-08-03T01:11:09.744Z,57.55
2018-08-03T01:13:38.193Z,57.97
2018-08-03T01:16:07.264Z,58.02
2018-08-03T01:18:35.724Z,57.58
2018-08-03T01:21:04.212Z,57.70
2018-08-03T01:23:33.007Z,58.21
2018-08-03T01:26:01.475Z,57.97
2018-08-03T01:28:30.014Z,58.01
2018-08-03T01:30:58.766Z,58.02
2018-08-03T01:33:27.673Z,58.48
2018-08-03T01:35:56.109Z,58.73
2018-08-03T01:38:24.879Z,58.82
2018-08-03T01:40:53.345Z,58.43
2018-08-03T01:43:21.848Z,59.05
2018-08-03T01:45:50.626Z,58.51
2018-08-03T01:48:20.284Z,59.09
2018-08-03T01:50:49.043Z,59.25
2018-08-03T01:53:18.158Z,59.16
2018-08-03T01:55:46.669Z,59.42
2018-08-03T01:58:15.117Z,59.79
2018-08-03T02:00:44.274Z,59.73
2018-08-03T02:03:12.854Z,59.62
2018-08-03T02:05:41.269Z,59.78
2018-08-03T02:08:10.277Z,60.26
2018-08-03T02:10:38.761Z,60.18
2018-08-03T02:13:07.522Z,60.37
2018-08-03T02:15:36.334Z,60.22
2018-08-03T02:18:04.764Z,60.68
2018-08-03T02:20:34.183Z,60.95
2018-08-03T02:23:03.061Z,60.98
2018-08-03T02:25:31.889Z,60.64
2018-08-03T02:28:00.561Z,61.32
2018-08-03T02:30:29.729Z,61.66
2018-08-03T02:32:58.222Z,61.81
2018-08-03T02:35:26.672Z,61.69
2018-08-03T02:37:55.477Z,62.00
2018-08-03T02:40:24.353Z,61.63
2018-08-03T02:42:53.333Z,61.76
2018-08-03T02:45:22.410Z,61.97
2018-08-03T02:47:51.145Z,61.92
2018-08-03T02:50:19.585Z,62.38
2018-08-03T02:52:48.511Z,62.71
2018-08-03T02:55:16.933Z,62.36
2018-08-03T02:57:45.430Z,62.35
2018-08-03T03:00:14.508Z,62.54
2018-08-03T03:02:42.986Z,62.65
2018-08-03T03:05:11.573Z,62.63
2018-08-03T03:07:40.561Z,63.03
2018-08-03T03:10:09.204Z,63.20
2018-08-03T03:12:37.678Z,63.33
2018-08-03T03:15:06.981Z,63.51
2018-08-03T03:17:35.977Z,62.89
2018-08-03T03:20:04.642Z,63.10
2018-08-03T03:22:33.593Z,63.45
2018-08-03T03:25:02.078Z,62.98
2018-08-03T03:27:30.577Z,63.33
2018-08-03T03:29:59.977Z,63.49
2018-08-03T03:32:28.540Z,63.19
2018-08-03T03:34:57.177Z,63.13
2018-08-03T03:37:26.018Z,63.37
2018-08-03T03:39:54.587Z,63.09
2018-08-03T03:42:23.021Z,63.33
2018-08-03T03:44:52.004Z,63.36
2018-08-03T03:47:20.444Z,63.46
2018-08-03T03:49:48.928Z,63.17
2018-08-03T03:52:17.565Z,63.20
2018-08-03T03:54:46.087Z,63.39
2018-08-03T03:57:14.530Z,63.59
2018-08-03T03:59:43.825Z,63.48
2018-08-03T04:02:12.315Z,63.06
2018-08-03T04:04:40.978Z,62.98
2018-08-03T04:07:09.994Z,63.02
2018-08-03T04:09:38.521Z,62.80
2018-08-03T04:12:07.314Z,63.25
2018-08-03T04:14:36.298Z,63.00
2018-08-03T04:17:04.837Z,62.78
2018-08-03T04:19:33.545Z,63.21
2018-08-03T04:22:02.414Z,63.17
2018-08-03T04:24:31.304Z,62.64
2018-08-03T04:27:00.176Z,62.79
2018-08-03T04:29:28.714Z,63.13
2018-08-03T04:31:57.640Z,63.17
2018-08-03T04:34:26.109Z,63.05
2018-08-03T04:36:55.114Z,62.86
2018-08-03T04:39:23.629Z,63.06
2018-08-03T04:41:52.646Z,62.79
2018-08-03T04:44:21.749Z,62.86
2018-08-03T04:46:50.210Z,62.54
2018-08-03T04:49:18.630Z,62.52
2018-08-03T04:51:47.690Z,62.74
2018-08-03T04:54:16.421Z,62.32
2018-08-03T04:56:44.874Z,62.85
2018-08-03T04:59:14.477Z,62.70
2018-08-03T05:01:43.045Z,62.29
2018-08-03T05:04:11.499Z,62.34
2018-08-03T05:06:40.537Z,62.60
2018-08-03T05:09:09.385Z,62.52
2018-08-03T05:11:37.841Z,62.05
2018-08-03T05:14:06.594Z,62.15
2018-08-03T05:16:35.502Z,62.49
2018-08-03T05:19:03.938Z,62.48
2018-08-03T05:21:32.645Z,62.05
2018-08-03T05:24:01.205Z,62.41
2018-08-03T05:26:29.893Z,62.41
2018-08-03T05:28:58.746Z,62.36
2018-08-03T05:31:27.454Z,61.83
2018-08-03T05:33:56.429Z,62.15
2018-08-03T05:36:25.458Z,61.78
2018-08-03T05:38:53.938Z,61.68
2018-08-03T05:41:22.400Z,62.01
2018-08-03T05:43:51.450Z,61.32
2018-08-03T05:46:19.967Z,61.22
2018-08-03T05:48:48.397Z,61.36
2018-08-03T05:51:17.486Z,61.29
2018-08-03T05:53:45.972Z,61.14
2018-08-03T05:56:14.461Z,61.13
2018-08-03T05:58:43.595Z,60.94
2018-08-03T06:01:12.101Z,60.38
2018-08-03T06:03:40.517Z,61.05
2018-08-03T06:06:09.310Z,60.55
2018-08-03T06:08:38.165Z,60.50
2018-08-03T06:11:06.858Z,60.53
2018-08-03T06:13:35.995Z,60.48
2018-08-03T06:16:04.557Z,59.93
2018-08-03T06:18:33.113Z,59.72
2018-08-03T06:21:02.013Z,60.15
2018-08-03T06:23:31.517Z,59.63
2018-08-03T06:26:00.802Z,59.47
2018-08-03T06:28:29.921Z,59.78
2018-08-03T06:30:58.657Z,59.61
2018-08-03T06:33:27.101Z,59.12
2018-08-03T06:35:56.442Z,58.87
2018-08-03T06:38:25.068Z,59.05
2018-08-03T06:40:53.537Z,58.31
2018-08-03T06:43:22.334Z,58.90
2018-08-03T06:45:50.858Z,58.80
2018-08-03T06:48:19.475Z,58.52
2018-08-03T06:50:48.093Z,58.10
2018-08-03T06:53:16.626Z,58.00
2018-08-03T06:55:45.209Z,57.69
2018-08-03T06:58:13.833Z,58.13
2018-08-03T07:00:42.285Z,57.34
2018-08-03T07:03:10.968Z,57.32
2018-08-03T07:05:39.949Z,56.64
2018-08-03T07:08:09.102Z,56.67
2018-08-03T07:10:38.070Z,56.09
2018-08-03T07:13:06.926Z,55.24
2018-08-03T07:15:35.508Z,55.07
2018-08-03T07:18:04.010Z,55.70
2018-08-03T07:20:33.041Z,55.17
2018-08-03T07:23:01.432Z,55.33
2018-08-03T07:25:31.052Z,55.17
2018-08-03T07:28:00.267Z,55.49
2018-08-03T07:30:28.749Z,55.66
2018-08-03T07:32:57.207Z,53.37
2018-08-03T07:35:26.576Z,52.22
2018-08-03T07:37:55.058Z,52.00
2018-08-03T07:40:24.657Z,50.29
2018-08-03T07:42:53.596Z,48.49
2018-08-03T07:45:22.084Z,48.33
2018-08-03T07:47:50.557Z,46.99
2018-08-03T07:50:19.673Z,46.47
2018-08-03T07:52:48.421Z,46.21
2018-08-03T07:55:16.938Z,46.86
2018-08-03T07:57:45.659Z,45.75
2018-08-03T08:00:14.373Z,45.24
2018-08-03T08:02:42.833Z,44.28
2018-08-03T08:05:11.720Z,43.98
2018-08-03T08:07:40.911Z,44.06
2018-08-03T08:10:09.393Z,44.02
2018-08-03T08:12:38.396Z,43.41
2018-08-03T08:15:06.979Z,43.78
2018-08-03T08:17:35.494Z,42.95
2018-08-03T08:20:05.080Z,41.42
2018-08-03T08:22:33.685Z,40.75
2018-08-03T08:25:02.157Z,41.34
2018-08-03T08:27:30.813Z,41.88
2018-08-03T08:29:59.418Z,41.03
2018-08-03T08:32:28.037Z,40.87
2018-08-03T08:34:57.172Z,39.71
2018-08-03T08:37:25.688Z,39.22
2018-08-03T08:39:54.164Z,40.41
2018-08-03T08:42:23.230Z,40.21
2018-08-03T08:44:51.685Z,39.74
2018-08-03T08:47:20.157Z,40.13
2018-08-03T08:49:49.617Z,38.89
2018-08-03T08:52:18.142Z,38.74
2018-08-03T08:54:46.658Z,38.58
2018-08-03T08:57:15.561Z,36.29
2018-08-03T08:59:44.242Z,37.09
2018-08-03T09:02:12.728Z,38.05
2018-08-03T09:04:41.504Z,37.68
2018-08-03T09:07:10.182Z,38.43
2018-08-03T09:09:38.634Z,38.57
2018-08-03T09:12:08.331Z,38.34
2018-08-03T09:14:37.414Z,35.84
2018-08-03T09:17:08.282Z,35.70
2018-08-03T09:19:37.193Z,35.40
2018-08-03T09:22:06.211Z,35.02
2018-08-03T09:24:34.893Z,35.33
2018-08-03T09:27:04.237Z,34.54
2018-08-03T09:29:32.787Z,33.60
2018-08-03T09:32:01.302Z,33.69
2018-08-03T09:34:31.107Z,33.35
2018-08-03T09:36:59.783Z,33.77
2018-08-03T09:39:29.197Z,32.99
2018-08-03T09:41:58.462Z,32.66
2018-08-03T09:44:26.942Z,32.09
2018-08-03T09:46:56.213Z,32.32
2018-08-03T09:49:24.805Z,32.28
2018-08-03T09:51:53.405Z,32.83
2018-08-03T09:54:21.935Z,33.01
2018-08-03T09:56:52.583Z,31.68
2018-08-03T09:59:21.250Z,29.97
2018-08-03T10:01:49.692Z,29.37
2018-08-03T10:04:18.825Z,29.39
2018-08-03T10:06:47.353Z,29.89
2018-08-03T10:09:15.793Z,30.13
2018-08-03T10:11:44.809Z,30.52
2018-08-03T10:14:13.306Z,30.44
2018-08-03T10:16:41.802Z,30.93
2018-08-03T10:19:10.862Z,31.74
2018-08-03T10:21:39.334Z,29.97
2018-08-03T10:24:08.119Z,29.37
2018-08-03T10:26:37.234Z,29.08
2018-08-03T10:29:05.767Z,29.74
2018-08-03T10:31:34.238Z,31.08
2018-08-03T10:34:03.346Z,31.80
2018-08-03T10:36:32.031Z,32.64
2018-08-03T10:39:00.485Z,32.02
2018-08-03T10:41:29.709Z,31.36
2018-08-03T10:43:58.249Z,32.87
2018-08-03T10:46:26.685Z,32.15
2018-08-03T10:48:55.285Z,32.48
2018-08-03T10:51:23.911Z,31.66
2018-08-03T10:53:52.646Z,32.07
2018-08-03T10:56:21.818Z,32.45
2018-08-03T10:58:50.770Z,32.48
2018-08-03T11:01:19.270Z,32.77
2018-08-03T11:03:48.243Z,31.14
2018-08-03T11:06:16.753Z,30.24
2018-08-03T11:08:45.245Z,29.60
2018-08-03T11:11:13.889Z,28.15
2018-08-03T11:13:43.615Z,29.44
2018-08-03T11:16:12.127Z,28.22
2018-08-03T11:18:41.151Z,29.74
2018-08-03T11:21:09.636Z,29.45
2018-08-03T11:23:38.076Z,29.22
2018-08-03T11:26:06.733Z,29.83
2018-08-03T11:28:35.222Z,29.39
2018-08-03T11:31:03.671Z,30.40
2018-08-03T11:33:32.345Z,30.19
2018-08-03T11:36:00.813Z,30.26
2018-08-03T11:38:33.678Z,28.52
2018-08-03T11:41:02.169Z,28.58
2018-08-03T11:43:30.959Z,28.33
2018-08-03T11:45:59.885Z,29.28
2018-08-03T11:48:28.498Z,29.36
2018-08-03T11:50:56.879Z,29.13
2018-08-03T11:53:25.463Z,30.53
2018-08-03T11:55:53.961Z,30.25
2018-08-03T11:58:22.430Z,30.00
2018-08-03T12:00:54.383Z,29.30
2018-08-03T12:03:22.885Z,30.20
2018-08-03T12:05:51.317Z,30.14
2018-08-03T12:08:19.833Z,30.92
2018-08-03T12:10:48.494Z,30.24
2018-08-03T12:13:17.013Z,29.83
2018-08-03T12:15:46.512Z,29.69
2018-08-03T12:18:15.495Z,29.59
2018-08-03T12:20:45.805Z,29.58
2018-08-03T12:23:14.883Z,28.81
2018-08-03T12:25:43.686Z,29.81
2018-08-03T12:28:12.529Z,30.86
2018-08-03T12:30:41.549Z,30.38
2018-08-03T12:33:10.438Z,28.20
2018-08-03T12:35:38.884Z,28.53
2018-08-03T12:38:07.997Z,29.42
2018-08-03T12:40:36.493Z,30.37
2018-08-03T12:43:04.953Z,30.29
2018-08-03T12:45:34.146Z,29.79
2018-08-03T12:48:02.344Z,30.11
2018-08-03T12:50:30.838Z,29.98
2018-08-03T12:52:59.510Z,30.48
2018-08-03T12:55:28.079Z,29.49
2018-08-03T12:57:56.770Z,29.79
2018-08-03T13:00:25.861Z,29.12
2018-08-03T13:02:54.360Z,29.87
2018-08-03T13:05:24.005Z,29.82
2018-08-03T13:07:54.303Z,29.31
2018-08-03T13:10:22.657Z,28.85
2018-08-03T13:12:51.092Z,28.72
2018-08-03T13:15:19.730Z,27.97
2018-08-03T13:17:49.261Z,27.44
2018-08-03T13:20:17.722Z,27.13
2018-08-03T13:22:46.826Z,28.04
2018-08-03T13:25:15.251Z,28.28
2018-08-03T13:27:43.699Z,28.10
2018-08-03T13:30:12.306Z,28.35
2018-08-03T13:32:40.927Z,27.43
2018-08-03T13:35:09.501Z,26.17
2018-08-03T13:37:38.301Z,26.49
2018-08-03T13:40:06.774Z,25.32
2018-08-03T13:42:35.225Z,26.93
2018-08-03T13:45:04.602Z,26.61
2018-08-03T13:47:33.077Z,26.76
2018-08-03T13:50:01.538Z,27.39
2018-08-03T13:52:31.381Z,27.22
2018-08-03T13:55:00.173Z,26.59
2018-08-03T13:57:28.627Z,26.18
2018-08-03T13:59:57.609Z,25.93
2018-08-03T14:02:28.301Z,25.81
2018-08-03T14:04:57.236Z,25.97
2018-08-03T14:07:28.042Z,25.88
2018-08-03T14:09:56.513Z,25.37
2018-08-03T14:12:24.973Z,26.40
2018-08-03T14:14:54.097Z,25.85
2018-08-03T14:17:22.560Z,25.24
2018-08-03T14:19:51.245Z,25.29
2018-08-03T14:22:20.154Z,25.69
2018-08-03T14:24:48.684Z,25.06
2018-08-03T14:27:17.133Z,25.80
2018-08-03T14:29:46.213Z,25.12
2018-08-03T14:32:14.817Z,26.07
2018-08-03T14:34:43.640Z,25.90
2018-08-03T14:37:12.882Z,26.81
2018-08-03T14:39:41.347Z,26.86
2018-08-03T14:42:09.817Z,26.43
2018-08-03T14:44:38.605Z,26.06
2018-08-03T14:47:07.157Z,25.48
2018-08-03T14:49:35.603Z,24.69
2018-08-03T14:52:04.169Z,24.65
2018-08-03T14:54:32.639Z,23.64
2018-08-03T14:57:01.103Z,22.49
2018-08-03T14:59:30.411Z,23.21
2018-08-03T15:01:59.552Z,23.70
2018-08-03T15:04:28.029Z,23.34
2018-08-03T15:06:57.149Z,22.98
2018-08-03T15:09:25.618Z,22.90
2018-08-03T15:11:54.136Z,23.53
2018-08-03T15:14:23.089Z,22.96
2018-08-03T15:16:51.570Z,23.78
2018-08-03T15:19:20.024Z,24.68
2018-08-03T15:21:49.213Z,24.72
2018-08-03T15:24:17.657Z,24.40
2018-08-03T15:26:46.111Z,23.91
2018-08-03T15:29:14.805Z,23.64
2018-08-03T15:31:43.260Z,24.52
2018-08-03T15:34:11.846Z,25.19
2018-08-03T15:36:40.816Z,25.83
2018-08-03T15:39:10.794Z,25.84
2018-08-03T15:41:39.265Z,25.83
2018-08-03T15:44:07.883Z,24.62
2018-08-03T15:46:36.351Z,25.91
2018-08-03T15:49:04.833Z,24.93
2018-08-03T15:51:34.113Z,24.60
2018-08-03T15:54:02.771Z,24.31
2018-08-03T15:56:31.253Z,24.18
2018-08-03T15:59:00.414Z,24.68
2018-08-03T16:01:29.534Z,24.79
2018-08-03T16:03:58.008Z,25.84
2018-08-03T16:06:26.654Z,26.29
2018-08-03T16:08:55.106Z,27.49
2018-08-03T16:11:23.658Z,27.92
2018-08-03T16:13:52.538Z,27.91
2018-08-03T16:16:21.101Z,27.12
2018-08-03T16:18:49.834Z,26.50
2018-08-03T16:21:18.581Z,26.29
2018-08-03T16:23:47.713Z,27.34
2018-08-03T16:26:16.221Z,27.77
2018-08-03T16:28:46.178Z,28.05
2018-08-03T16:31:14.665Z,27.94
2018-08-03T16:33:43.155Z,28.72
2018-08-03T16:36:12.236Z,29.16
2018-08-03T16:38:40.825Z,29.15
2018-08-03T16:41:09.290Z,28.96
2018-08-03T16:43:38.329Z,29.23
2018-08-03T16:46:07.209Z,30.10
2018-08-03T16:48:36.094Z,29.39
2018-08-03T16:51:09.728Z,28.47
2018-08-03T16:53:38.386Z,29.45
2018-08-03T16:56:07.557Z,29.18
2018-08-03T16:58:36.172Z,29.40
2018-08-03T17:01:04.642Z,30.03
2018-08-03T17:03:34.502Z,30.23
2018-08-03T17:06:02.973Z,31.31
2018-08-03T17:08:31.424Z,31.78
2018-08-03T17:11:00.654Z,31.91
2018-08-03T17:13:29.333Z,33.01
2018-08-03T17:15:58.842Z,33.50
2018-08-03T17:18:27.970Z,33.00
2018-08-03T17:20:56.986Z,34.06
2018-08-03T17:23:25.525Z,33.68
2018-08-03T17:25:54.846Z,35.17
2018-08-03T17:28:23.287Z,34.85
2018-08-03T17:30:51.729Z,35.03
2018-08-03T17:33:20.665Z,35.76
2018-08-03T17:35:49.105Z,36.20
2018-08-03T17:38:17.886Z,35.80
2018-08-03T17:40:47.021Z,36.01
2018-08-03T17:43:15.668Z,36.26
2018-08-03T17:45:44.182Z,37.59
2018-08-03T17:48:13.361Z,37.68
2018-08-03T17:50:41.821Z,38.02
2018-08-03T17:53:10.271Z,37.89
2018-08-03T17:55:39.069Z,38.11
2018-08-03T17:58:07.517Z,38.48
2018-08-03T18:00:35.957Z,38.63
2018-08-03T18:03:04.562Z,38.91
2018-08-03T18:05:33.036Z,39.36
2018-08-03T18:08:01.577Z,38.93
2018-08-03T18:10:31.458Z,39.13
2018-08-03T18:13:00.794Z,39.77
2018-08-03T18:15:29.689Z,39.27
2018-08-03T18:17:58.837Z,39.25
2018-08-03T18:20:27.647Z,39.54
2018-08-03T18:22:56.106Z,39.87
2018-08-03T18:25:25.108Z,39.67
2018-08-03T18:27:53.717Z,40.45
2018-08-03T18:30:22.229Z,39.96
2018-08-03T18:32:51.502Z,39.91
2018-08-03T18:35:20.076Z,40.23
2018-08-03T18:37:48.636Z,40.38
2018-08-03T18:40:17.302Z,40.72
2018-08-03T18:42:45.741Z,41.43
2018-08-03T18:45:14.230Z,40.69
2018-08-03T18:47:43.009Z,40.60
2018-08-03T18:50:11.449Z,40.82
2018-08-03T18:52:41.037Z,41.42
2018-08-03T18:55:09.694Z,41.05
2018-08-03T18:57:38.454Z,41.54
2018-08-03T19:00:07.493Z,41.61
2018-08-03T19:02:36.959Z,41.64
2018-08-03T19:05:06.293Z,41.19
2018-08-03T19:07:34.741Z,41.55
2018-08-03T19:10:03.330Z,41.39
2018-08-03T19:12:32.029Z,41.83
2018-08-03T19:15:01.389Z,42.23
2018-08-03T19:17:31.483Z,41.76
2018-08-03T19:20:01.307Z,41.71
2018-08-03T19:22:29.969Z,41.89
2018-08-03T19:24:58.964Z,42.02
2018-08-03T19:27:27.881Z,42.09
2018-08-03T19:29:56.518Z,42.59
2018-08-03T19:32:25.420Z,42.37
2018-08-03T19:34:55.693Z,42.41
2018-08-03T19:37:24.229Z,42.91
2018-08-03T19:39:53.078Z,42.86
2018-08-03T19:42:22.481Z,43.12
2018-08-03T19:44:50.937Z,43.12
2018-08-03T19:47:20.061Z,42.95
2018-08-03T19:49:48.557Z,43.49
2018-08-03T19:52:17.333Z,43.10
2018-08-03T19:54:46.848Z,43.22
2018-08-03T19:57:15.308Z,43.93
2018-08-03T19:59:43.762Z,43.99
2018-08-03T20:02:12.806Z,44.08
2018-08-03T20:04:41.487Z,44.30
2018-08-03T20:07:09.930Z,43.92
2018-08-03T20:09:38.881Z,44.70
2018-08-03T20:12:07.729Z,45.01
2018-08-03T20:14:36.206Z,45.15
2018-08-03T20:17:05.506Z,45.44
2018-08-03T20:19:33.993Z,45.28
2018-08-03T20:22:02.527Z,45.41
2018-08-03T20:24:31.577Z,45.67
2018-08-03T20:27:01.067Z,45.84
2018-08-03T20:29:29.707Z,46.52
2018-08-03T20:31:59.532Z,46.76
2018-08-03T20:34:28.053Z,46.42
2018-08-03T20:36:57.413Z,46.52
2018-08-03T20:39:32.893Z,46.81
2018-08-03T20:42:02.100Z,47.12
2018-08-03T20:44:32.057Z,47.33
2018-08-03T20:47:03.896Z,47.59
2018-08-03T20:49:32.865Z,47.54
2018-08-03T20:52:01.554Z,47.46
2018-08-03T20:54:31.050Z,47.60
2018-08-03T20:56:59.585Z,47.66
2018-08-03T20:59:28.110Z,48.01
2018-08-03T21:01:57.509Z,47.31
2018-08-03T21:04:26.152Z,47.55
2018-08-03T21:06:54.617Z,47.63
2018-08-03T21:09:23.557Z,47.70
2018-08-03T21:11:52.533Z,47.08
2018-08-03T21:14:20.969Z,47.67
2018-08-03T21:16:49.989Z,47.57
2018-08-03T21:19:18.496Z,47.52
2018-08-03T21:21:47.169Z,47.15
2018-08-03T21:24:16.353Z,47.29
2018-08-03T21:26:44.810Z,47.26
2018-08-03T21:29:13.262Z,47.27
2018-08-03T21:31:42.538Z,47.74
2018-08-03T21:34:11.536Z,48.03
2018-08-03T21:36:40.009Z,47.83
2018-08-03T21:39:10.756Z,48.13
2018-08-03T21:41:39.211Z,47.71
2018-08-03T21:44:07.790Z,48.23
2018-08-03T21:46:36.952Z,48.47
2018-08-03T21:49:05.753Z,48.36
2018-08-03T21:51:34.621Z,48.65
2018-08-03T21:54:03.888Z,48.75
2018-08-03T21:56:32.332Z,48.61
2018-08-03T21:59:00.780Z,49.00
2018-08-03T22:01:30.413Z,49.28
2018-08-03T22:03:58.948Z,49.47
2018-08-03T22:06:27.368Z,49.63
2018-08-03T22:08:56.565Z,49.71
2018-08-03T22:11:25.230Z,49.35
2018-08-03T22:13:53.813Z,49.88
2018-08-03T22:16:22.677Z,49.69
2018-08-03T22:18:51.242Z,49.80
2018-08-03T22:21:19.709Z,50.20
2018-08-03T22:23:49.039Z,50.29
2018-08-03T22:26:17.476Z,50.10
2018-08-03T22:28:45.916Z,50.71
2018-08-03T22:31:14.881Z,50.47
2018-08-03T22:33:43.580Z,50.98
2018-08-03T22:36:12.396Z,50.61
2018-08-03T22:38:41.468Z,51.22
2018-08-03T22:41:09.973Z,51.30
2018-08-03T22:43:38.412Z,51.12
2018-08-03T22:46:07.548Z,50.99
2018-08-03T22:48:36.364Z,51.80
2018-08-03T22:51:05.022Z,51.62
2018-08-03T22:53:34.184Z,51.67
2018-08-03T22:56:02.634Z,52.30
2018-08-03T22:58:31.216Z,52.13
2018-08-03T23:01:00.338Z,52.28
2018-08-03T23:03:29.372Z,52.95
2018-08-03T23:05:57.940Z,52.79
2018-08-03T23:08:26.666Z,53.28
2018-08-03T23:10:55.112Z,53.51
2018-08-03T23:13:23.580Z,53.48
2018-08-03T23:15:52.415Z,53.92
2018-08-03T23:18:20.821Z,54.15
2018-08-03T23:20:49.280Z,54.05
2018-08-03T23:23:18.098Z,54.23
2018-08-03T23:25:47.352Z,54.75
2018-08-03T23:28:15.797Z,54.83
2018-08-03T23:30:44.770Z,55.29
2018-08-03T23:33:13.249Z,55.44
2018-08-03T23:35:41.722Z,55.55
2018-08-03T23:38:10.834Z,55.70
2018-08-03T23:40:39.286Z,55.61
2018-08-03T23:43:07.741Z,56.04
2018-08-03T23:45:37.562Z,56.26
2018-08-03T23:48:06.049Z,55.71
2018-08-03T23:50:34.768Z,56.42
2018-08-03T23:53:03.867Z,56.29
2018-08-03T23:55:32.379Z,56.19
2018-08-03T23:58:00.832Z,56.79
